Time;durP1;ratioP1;P1;durP2;ratioP2;P2;SDS_P1;SDS_P2;PMS_P1;PMS_P2;Temp;Humidity;BMP_temperature;BMP_pressure;BME280_temperature;BME280_humidity;BME280_pressure;Samples;Min_cycle;Max_cycle;Signal;HPM_P1;HPM_P2
2022/09/27 00:01:38;;;;;;;;;;;;;;;19.48;76.24;98609.50;2502429;27;20203;-72
2022/09/27 00:01:48;;;;;;;;;;;;;;;19.48;76.29;98609.50;356882;27;866;-72
2022/09/27 00:01:59;;;;;;;;;;;;;;;19.49;76.22;98608.53;353351;28;1303;-72
2022/09/27 00:02:09;;;;;;;;;;;;;;;19.47;76.44;98602.53;351756;28;1450;-72
2022/09/27 00:02:20;;;;;;;;;;;;;;;19.46;76.33;98611.47;349282;28;1333;-72
2022/09/27 00:02:30;;;;;;;;;;;;;;;19.47;76.45;98607.00;349376;28;840;-73
2022/09/27 00:02:40;;;;;;;;;;;;;;;19.46;76.67;98608.81;348004;28;793;-73
2022/09/27 00:02:50;;;;;;;;;;;;;;;19.46;76.83;98607.97;348079;28;967;-73
2022/09/27 00:03:01;;;;;;;;;;;;;;;19.45;76.84;98608.94;349255;28;1220;-73
2022/09/27 00:03:11;;;;;;;;;;;;;;;19.44;76.91;98602.81;349252;28;1235;-73
2022/09/27 00:03:22;;;;;;;;;;;;;;;19.43;76.94;98610.91;349308;28;888;-73
2022/09/27 00:03:32;;;;;;;;;;;;;;;19.43;77.07;98606.44;349280;28;1199;-72
2022/09/27 00:03:42;;;;;;;;;;;;;;;19.41;77.06;98605.75;349326;28;1553;-73
2022/09/27 00:03:54;;;;;;;;;;;;;;;19.40;77.16;98605.88;346470;28;1173;-73
2022/09/27 00:04:04;;;;;;;;;;;;;;;19.38;77.18;98603.38;347586;28;932;-73
2022/09/27 00:04:14;;;;;;;;;;;;;;;19.35;77.45;98605.47;348346;28;813;-73
2022/09/27 00:04:25;;;;;;;;;;;;;;;19.34;77.55;98612.59;348026;28;1444;-72
2022/09/27 00:04:35;;;;;;;;;;;;;;;19.35;77.88;98605.47;348001;28;1358;-73
2022/09/27 00:04:45;;;;;;;;;;;;;;;19.35;77.66;98608.13;348074;28;872;-73
2022/09/27 00:04:57;;;;;;;;;;;;;;;19.33;77.44;98605.63;348384;28;1112;-72
2022/09/27 00:05:07;;;;;;;;;;;;;;;19.31;78.06;98607.56;346504;28;833;-74
2022/09/27 00:05:17;;;;;;;;;;;;;;;19.30;77.86;98605.06;347758;28;1035;-73
2022/09/27 00:05:28;;;;;;;;;;;;;;;19.31;77.79;98604.09;348346;28;1733;-73
2022/09/27 00:05:38;;;;;;;;;;;;;;;19.31;78.40;98612.03;350438;28;1316;-73
2022/09/27 00:05:48;;;;;;;;;;;;;;;19.32;77.90;98603.09;350518;28;947;-73
2022/09/27 00:06:12;;;;;;;;;;;;;;;19.33;77.77;98610.09;350430;28;1195;-73
2022/09/27 00:06:22;;;;;;;;;;;;;;;19.33;77.86;98605.63;348348;28;3728;-73
2022/09/27 00:06:33;;;;;;;;;;;;;;;19.34;78.21;98601.97;347417;28;4920;-74
2022/09/27 00:06:43;;;;;;;;;;;;;;;19.35;78.07;98608.97;349215;28;924;-73
2022/09/27 00:06:53;;;;;;;;;;;;;;;19.35;77.67;98608.97;350705;28;799;-73
2022/09/27 00:07:04;;;;;;;;;;;;;;;19.36;77.70;98605.31;350421;28;3253;-72
2022/09/27 00:07:14;;;;;;;;;;;;;;;19.34;77.77;98607.28;347580;28;1330;-73
2022/09/27 00:07:24;;;;;;;;;;;;;;;19.33;78.23;98607.44;347742;28;787;-73
2022/09/27 00:07:34;;;;;;;;;;;;;;;19.31;78.04;98602.25;347073;28;1038;-73
2022/09/27 00:07:45;;;;;;;;;;;;;;;19.30;78.18;98603.25;346022;28;844;-73
2022/09/27 00:07:55;;;;;;;;;;;;;;;19.31;78.38;98594.31;345139;28;1333;-73
2022/09/27 00:08:05;;;;;;;;;;;;;;;19.31;78.47;98607.56;348846;28;1049;-73
2022/09/27 00:08:16;;;;;;;;;;;;;;;19.32;78.22;98605.75;346558;28;1392;-73
2022/09/27 00:08:26;;;;;;;;;;;;;;;19.31;78.29;98602.25;346202;28;1608;-73
2022/09/27 00:08:36;;;;;;;;;;;;;;;19.31;78.57;98602.25;347639;28;1087;-73
2022/09/27 00:08:46;;;;;;;;;;;;;;;19.31;78.46;98607.56;347793;28;817;-73
2022/09/27 00:08:57;;;;;;;;;;;;;;;19.33;78.48;98608.25;347680;28;1987;-73
2022/09/27 00:09:08;;;;;;;;;;;;;;;19.32;78.29;98609.25;349155;28;864;-74
2022/09/27 00:09:18;;;;;;;;;;;;;;;19.32;78.59;98603.94;347644;28;927;-73
2022/09/27 00:09:29;;;;;;;;;;;;;;;19.32;78.37;98590.66;349208;28;1317;-73
2022/09/27 00:09:39;;;;;;;;;;;;;;;19.33;78.36;98602.97;350501;28;824;-73
2022/09/27 00:09:49;;;;;;;;;;;;;;;19.33;78.34;98602.97;347988;28;1264;-73
2022/09/27 00:09:59;;;;;;;;;;;;;;;19.32;78.69;98593.31;341759;28;1540;-73
2022/09/27 00:10:10;;;;;;;;;;;;;;;19.33;78.72;98599.47;341176;29;878;-73
2022/09/27 00:10:20;;;;;;;;;;;;;;;19.32;79.00;98598.63;341334;28;1564;-73
2022/09/27 00:10:30;;;;;;;;;;;;;;;19.32;78.61;98598.63;340698;29;1907;-73
2022/09/27 00:10:41;;;;;;;;;;;;;;;19.31;78.70;98602.25;342353;28;1232;-73
2022/09/27 00:10:57;;;;;;;;;;;;;;;19.31;78.79;98596.13;341003;29;1201;-73
2022/09/27 00:11:09;;;;;;;;;;;;;;;19.31;78.97;98596.97;339570;29;1419;-73
2022/09/27 00:11:19;;;;;;;;;;;;;;;19.33;79.14;98604.78;338971;29;1885;-73
2022/09/27 00:11:33;;;;;;;;;;;;;;;19.33;78.84;98599.47;336730;29;1595;-73
2022/09/27 00:11:43;;;;;;;;;;;;;;;19.33;78.92;98600.31;335506;29;1712;-73
2022/09/27 00:11:53;;;;;;;;;;;;;;;19.33;78.82;98602.97;335712;29;858;-73
2022/09/27 00:12:04;;;;;;;;;;;;;;;19.30;79.16;98600.59;336305;29;1856;-73
2022/09/27 00:12:14;;;;;;;;;;;;;;;19.31;79.12;98596.97;334819;29;2178;-73
2022/09/27 00:12:24;;;;;;;;;;;;;;;19.32;79.26;98597.78;331930;29;935;-73
2022/09/27 00:12:34;;;;;;;;;;;;;;;19.33;79.13;98602.97;333026;29;2243;-73
2022/09/27 00:12:45;;;;;;;;;;;;;;;19.34;79.04;98596.66;332677;29;1559;-73
2022/09/27 00:12:55;;;;;;;;;;;;;;;19.33;79.14;98600.31;332058;29;1215;-73
2022/09/27 00:13:05;;;;;;;;;;;;;;;19.34;79.22;98598.50;329567;29;1350;-73
2022/09/27 00:13:15;;;;;;;;;;;;;;;19.33;79.17;98594.16;328864;29;1481;-73
2022/09/27 00:13:26;;;;;;;;;;;;;;;19.33;79.10;98600.31;329444;30;1315;-73
2022/09/27 00:13:36;;;;;;;;;;;;;;;19.33;79.33;98602.13;328163;29;1871;-73
2022/09/27 00:13:46;;;;;;;;;;;;;;;19.32;79.75;98603.94;328013;29;2126;-73
2022/09/27 00:13:57;;;;;;;;;;;;;;;19.31;79.77;98599.63;331176;29;2040;-73
2022/09/27 00:14:07;;;;;;;;;;;;;;;19.30;79.76;98603.25;325898;30;955;-73
2022/09/27 00:14:18;;;;;;;;;;;;;;;19.28;79.87;98600.72;326794;30;2596;-73
2022/09/27 00:14:28;;;;;;;;;;;;;;;19.29;79.52;98598.91;324546;30;2624;-73
2022/09/27 00:14:38;;;;;;;;;;;;;;;19.30;79.85;98599.75;327107;30;801;-73
2022/09/27 00:14:48;;;;;;;;;;;;;;;19.29;80.19;98601.56;327126;30;2761;-73
2022/09/27 00:14:59;;;;;;;;;;;;;;;19.28;80.23;98597.25;327016;30;2434;-73
2022/09/27 00:15:10;;;;;;;;;;;;;;;19.25;79.80;98598.38;327058;30;1245;-73
2022/09/27 00:15:20;;;;;;;;;;;;;;;19.23;80.33;98596.81;323376;30;1280;-73
2022/09/27 00:15:30;;;;;;;;;;;;;;;19.20;80.37;98607.72;321103;30;3626;-75
2022/09/27 00:15:41;;;;;;;;;;;;;;;19.18;80.29;98602.56;318173;30;4776;-74
2022/09/27 00:15:57;;;;;;;;;;;;;;;19.18;80.88;98601.72;320301;30;2944;-73
2022/09/27 00:16:08;;;;;;;;;;;;;;;19.17;80.67;98600.03;316467;31;2078;-72
2022/09/27 00:16:18;;;;;;;;;;;;;;;19.14;80.87;98595.03;316453;30;3194;-72
2022/09/27 00:16:29;;;;;;;;;;;;;;;19.14;80.97;98609.13;314885;30;3426;-72
2022/09/27 00:16:39;;;;;;;;;;;;;;;19.12;81.01;98607.59;316458;31;941;-72
2022/09/27 00:16:50;;;;;;;;;;;;;;;19.12;81.13;98602.28;315490;31;4177;-73
2022/09/27 00:17:00;;;;;;;;;;;;;;;19.13;81.02;98606.59;316063;30;3165;-73
2022/09/27 00:17:10;;;;;;;;;;;;;;;19.14;80.86;98605.63;315323;31;1697;-73
2022/09/27 00:17:20;;;;;;;;;;;;;;;19.15;80.81;98607.31;313217;31;2126;-72
2022/09/27 00:17:30;;;;;;;;;;;;;;;19.17;81.03;98610.66;310968;31;2255;-72
2022/09/27 00:17:41;;;;;;;;;;;;;;;19.18;80.86;98601.72;311360;31;1292;-72
2022/09/27 00:17:51;;;;;;;;;;;;;;;19.20;80.86;98605.06;313519;31;3097;-72
2022/09/27 00:18:01;;;;;;;;;;;;;;;19.21;80.78;98601.44;311415;31;3905;-73
2022/09/27 00:18:11;;;;;;;;;;;;;;;19.21;80.66;98601.44;309830;31;943;-74
2022/09/27 00:18:22;;;;;;;;;;;;;;;19.19;80.72;98603.41;312710;31;3753;-73
2022/09/27 00:18:32;;;;;;;;;;;;;;;19.19;80.96;98606.03;308535;31;4499;-73
2022/09/27 00:18:42;;;;;;;;;;;;;;;19.19;80.66;98601.56;306086;31;4700;-73
2022/09/27 00:18:53;;;;;;;;;;;;;;;19.20;81.15;98605.06;310945;31;959;-73
2022/09/27 00:19:04;;;;;;;;;;;;;;;19.19;80.97;98606.88;306513;32;4710;-73
2022/09/27 00:19:15;;;;;;;;;;;;;;;19.20;81.00;98599.75;305240;32;4491;-73
2022/09/27 00:19:26;;;;;;;;;;;;;;;19.21;81.00;98610.22;307642;32;824;-73
2022/09/27 00:19:36;;;;;;;;;;;;;;;19.22;81.16;98608.41;309201;31;2932;-73
2022/09/27 00:19:46;;;;;;;;;;;;;;;19.23;81.25;98604.78;307032;32;3275;-73
2022/09/27 00:19:59;;;;;;;;;;;;;;;19.25;81.02;98602.84;307683;32;880;-73
2022/09/27 00:20:10;;;;;;;;;;;;;;;19.25;81.10;98608.97;306595;32;863;-73
2022/09/27 00:20:20;;;;;;;;;;;;;;;19.26;81.17;98604.50;301838;32;5318;-73
2022/09/27 00:20:30;;;;;;;;;;;;;;;19.25;81.00;98608.13;300567;32;5828;-73
2022/09/27 00:20:40;;;;;;;;;;;;;;;19.25;80.86;98605.47;304470;32;1012;-73
2022/09/27 00:20:51;;;;;;;;;;;;;;;19.24;81.03;98604.66;302312;32;5860;-73
2022/09/27 00:21:07;;;;;;;;;;;;;;;19.26;81.05;98607.16;303633;32;6222;-73
2022/09/27 00:21:18;;;;;;;;;;;;;;;19.24;81.38;98612.59;303557;32;6379;-73
2022/09/27 00:21:29;;;;;;;;;;;;;;;19.25;81.46;98608.13;301176;32;6362;-73
2022/09/27 00:21:40;;;;;;;;;;;;;;;19.23;81.02;98607.44;303427;32;853;-73
2022/09/27 00:21:50;;;;;;;;;;;;;;;19.22;81.37;98603.94;303141;32;4148;-73
2022/09/27 00:22:00;;;;;;;;;;;;;;;19.22;81.55;98603.13;300758;32;4915;-73
2022/09/27 00:22:10;;;;;;;;;;;;;;;19.22;81.36;98601.28;300523;32;889;-74
2022/09/27 00:22:21;;;;;;;;;;;;;;;19.22;81.62;98597.81;296829;33;6132;-73
2022/09/27 00:22:32;;;;;;;;;;;;;;;19.22;81.52;98597.81;298347;32;7869;-73
2022/09/27 00:22:42;;;;;;;;;;;;;;;19.24;81.28;98601.16;301316;32;956;-73
2022/09/27 00:22:52;;;;;;;;;;;;;;;19.22;81.46;98597.81;297972;32;8473;-73
2022/09/27 00:23:02;;;;;;;;;;;;;;;19.21;81.94;98596.97;295950;33;7881;-73
2022/09/27 00:23:13;;;;;;;;;;;;;;;19.22;81.75;98597.81;295050;32;8950;-73
2022/09/27 00:23:23;;;;;;;;;;;;;;;19.22;81.76;98598.66;297843;33;871;-73
2022/09/27 00:23:33;;;;;;;;;;;;;;;19.22;82.05;98595.16;293797;33;8443;-73
2022/09/27 00:23:43;;;;;;;;;;;;;;;19.22;82.02;98598.66;292127;33;8698;-73
2022/09/27 00:23:54;;;;;;;;;;;;;;;19.23;81.97;98588.88;293215;33;1221;-73
2022/09/27 00:24:04;;;;;;;;;;;;;;;19.23;82.08;98594.19;290706;33;6098;-73
2022/09/27 00:24:18;;;;;;;;;;;;;;;19.24;82.21;98598.50;291148;33;7165;-73
2022/09/27 00:26:03;;;;;;;;;;;;;;;19.24;82.47;98585.25;2497402;27;20586;-72
2022/09/27 00:26:13;;;;;;;;;;;;;;;19.25;82.51;98587.75;355769;27;2167;-73
2022/09/27 00:26:24;;;;;;;;;;;;;;;19.26;82.41;98591.25;354788;27;881;-73
2022/09/27 00:26:34;;;;;;;;;;;;;;;19.26;82.04;98589.41;351837;28;1368;-73
2022/09/27 00:26:45;;;;;;;;;;;;;;;19.27;82.25;98590.25;351295;28;1575;-73
2022/09/27 00:26:56;;;;;;;;;;;;;;;19.27;82.29;98599.06;351910;28;1480;-73
2022/09/27 00:27:06;;;;;;;;;;;;;;;19.26;82.33;98589.41;350619;28;922;-73
2022/09/27 00:27:16;;;;;;;;;;;;;;;19.25;82.53;98587.75;350381;28;804;-72
2022/09/27 00:27:27;;;;;;;;;;;;;;;19.25;82.44;98595.72;350697;28;856;-72
2022/09/27 00:27:37;;;;;;;;;;;;;;;19.25;82.65;98597.53;350424;28;1781;-72
2022/09/27 00:27:48;;;;;;;;;;;;;;;19.23;82.63;98594.19;350415;28;1210;-72
2022/09/27 00:27:58;;;;;;;;;;;;;;;19.23;82.84;98591.53;350503;28;878;-72
2022/09/27 00:28:09;;;;;;;;;;;;;;;19.22;82.88;98593.34;349158;28;1256;-73
2022/09/27 00:28:19;;;;;;;;;;;;;;;19.22;83.08;98595.16;347714;28;1337;-73
2022/09/27 00:28:30;;;;;;;;;;;;;;;19.21;82.83;98594.31;349156;28;897;-73
2022/09/27 00:28:40;;;;;;;;;;;;;;;19.22;83.04;98598.66;349153;28;1405;-73
2022/09/27 00:28:50;;;;;;;;;;;;;;;19.22;82.94;98592.50;349156;28;851;-73
2022/09/27 00:29:00;;;;;;;;;;;;;;;19.23;82.84;98596.81;349253;28;851;-73
2022/09/27 00:29:11;;;;;;;;;;;;;;;19.22;83.17;98592.50;349168;28;807;-73
2022/09/27 00:29:21;;;;;;;;;;;;;;;19.21;83.09;98596.13;347684;28;1939;-73
2022/09/27 00:29:31;;;;;;;;;;;;;;;19.20;83.08;98589.16;350487;28;793;-73
2022/09/27 00:29:41;;;;;;;;;;;;;;;19.20;83.16;98599.75;350444;28;844;-73
2022/09/27 00:29:52;;;;;;;;;;;;;;;19.20;83.20;98597.94;347645;28;1081;-73
2022/09/27 00:30:02;;;;;;;;;;;;;;;19.21;82.99;98593.47;347914;28;868;-73
2022/09/27 00:30:12;;;;;;;;;;;;;;;19.22;83.22;98603.13;350764;28;997;-73
2022/09/27 00:30:23;;;;;;;;;;;;;;;19.21;83.24;98601.44;350510;28;915;-72
2022/09/27 00:30:33;;;;;;;;;;;;;;;19.21;83.03;98591.66;349161;28;897;-72
2022/09/27 00:30:43;;;;;;;;;;;;;;;19.21;83.56;98604.09;347755;28;830;-72
2022/09/27 00:30:53;;;;;;;;;;;;;;;19.20;83.40;98600.59;349029;28;1303;-72
2022/09/27 00:31:04;;;;;;;;;;;;;;;19.20;83.26;98603.25;346369;28;1462;-72
2022/09/27 00:31:16;;;;;;;;;;;;;;;19.19;83.40;98595.44;345640;28;1811;-72
2022/09/27 00:31:30;;;;;;;;;;;;;;;19.16;83.32;98598.38;345704;28;900;-72
2022/09/27 00:31:40;;;;;;;;;;;;;;;19.14;83.90;98605.63;345847;28;912;-72
2022/09/27 00:31:50;;;;;;;;;;;;;;;19.13;83.85;98601.31;345037;28;857;-72
2022/09/27 00:32:00;;;;;;;;;;;;;;;19.11;83.85;98604.09;347326;28;1035;-72
2022/09/27 00:32:11;;;;;;;;;;;;;;;19.10;84.04;98605.06;347018;28;1494;-72
2022/09/27 00:32:21;;;;;;;;;;;;;;;19.09;83.87;98598.09;342835;28;802;-72
2022/09/27 00:32:31;;;;;;;;;;;;;;;19.10;83.95;98601.59;346182;28;1352;-72
2022/09/27 00:32:42;;;;;;;;;;;;;;;19.09;84.08;98600.75;342863;28;1911;-72
2022/09/27 00:32:52;;;;;;;;;;;;;;;19.10;84.12;98602.44;341025;28;1204;-72
2022/09/27 00:33:02;;;;;;;;;;;;;;;19.11;84.16;98600.59;342386;28;825;-72
2022/09/27 00:33:13;;;;;;;;;;;;;;;19.12;84.21;98599.63;342386;28;1062;-73
2022/09/27 00:33:23;;;;;;;;;;;;;;;19.11;84.21;98601.44;341928;28;1281;-73
2022/09/27 00:33:33;;;;;;;;;;;;;;;19.12;84.17;98599.63;342440;28;855;-73
2022/09/27 00:33:43;;;;;;;;;;;;;;;19.12;84.06;98602.28;343974;28;885;-73
2022/09/27 00:33:53;;;;;;;;;;;;;;;19.10;83.87;98605.06;343806;28;3723;-73
2022/09/27 00:34:04;;;;;;;;;;;;;;;19.12;84.14;98599.63;341295;28;4766;-74
2022/09/27 00:34:16;;;;;;;;;;;;;;;19.14;84.07;98605.63;344047;28;3010;-73
2022/09/27 00:34:27;;;;;;;;;;;;;;;19.14;84.09;98605.63;341956;28;1691;-73
2022/09/27 00:34:38;;;;;;;;;;;;;;;19.14;83.94;98600.31;337983;29;3302;-73
2022/09/27 00:34:48;;;;;;;;;;;;;;;19.17;83.70;98610.66;335455;29;1998;-73
2022/09/27 00:34:58;;;;;;;;;;;;;;;19.16;83.88;98609.81;331507;29;5137;-73
2022/09/27 00:35:08;;;;;;;;;;;;;;;19.15;83.83;98607.31;334109;29;5451;-73
2022/09/27 00:35:19;;;;;;;;;;;;;;;19.14;83.74;98608.28;338318;29;1325;-73
2022/09/27 00:35:29;;;;;;;;;;;;;;;19.16;83.81;98609.81;340491;29;1846;-73
2022/09/27 00:35:39;;;;;;;;;;;;;;;19.14;83.91;98610.94;341938;28;3453;-73
2022/09/27 00:35:49;;;;;;;;;;;;;;;19.16;83.84;98608.97;340956;29;1186;-73
2022/09/27 00:36:04;;;;;;;;;;;;;;;19.15;83.87;98613.44;338575;29;2025;-74
2022/09/27 00:36:14;;;;;;;;;;;;;;;19.15;83.98;98613.44;333393;29;1764;-74
2022/09/27 00:36:24;;;;;;;;;;;;;;;19.15;84.16;98607.31;329919;29;1989;-74
2022/09/27 00:36:34;;;;;;;;;;;;;;;19.15;84.30;98612.63;326055;30;1540;-74
2022/09/27 00:36:45;;;;;;;;;;;;;;;19.15;84.42;98613.44;326917;29;2023;-74
2022/09/27 00:36:55;;;;;;;;;;;;;;;19.16;84.43;98611.63;324447;30;2288;-74
2022/09/27 00:37:06;;;;;;;;;;;;;;;19.17;84.51;98611.50;327008;30;1403;-74
2022/09/27 00:37:17;;;;;;;;;;;;;;;19.19;84.54;98616.66;328211;30;1687;-74
2022/09/27 00:37:27;;;;;;;;;;;;;;;19.20;84.48;98610.38;325700;30;1746;-73
2022/09/27 00:37:37;;;;;;;;;;;;;;;19.19;84.42;98606.88;325582;30;1342;-73
2022/09/27 00:37:48;;;;;;;;;;;;;;;19.20;84.36;98615.69;323467;30;880;-73
2022/09/27 00:37:58;;;;;;;;;;;;;;;19.21;84.85;98609.41;322859;30;1978;-73
2022/09/27 00:38:08;;;;;;;;;;;;;;;19.21;84.48;98609.41;322078;30;2147;-73
2022/09/27 00:38:18;;;;;;;;;;;;;;;19.21;84.36;98618.19;321181;30;2004;-73
2022/09/27 00:38:29;;;;;;;;;;;;;;;19.22;84.64;98619.03;323731;30;2579;-73
2022/09/27 00:38:39;;;;;;;;;;;;;;;19.19;84.32;98611.34;322386;30;2683;-73
2022/09/27 00:38:50;;;;;;;;;;;;;;;19.17;84.36;98616.78;324651;30;1814;-73
2022/09/27 00:39:00;;;;;;;;;;;;;;;19.14;84.30;98613.59;323056;30;2657;-73
2022/09/27 00:39:10;;;;;;;;;;;;;;;19.14;84.22;98610.94;318772;30;2857;-73
2022/09/27 00:39:20;;;;;;;;;;;;;;;19.14;84.06;98610.94;316423;31;1107;-73
2022/09/27 00:39:31;;;;;;;;;;;;;;;19.14;83.97;98611.78;319283;30;1916;-73
2022/09/27 00:39:41;;;;;;;;;;;;;;;19.14;84.07;98610.94;319234;30;1345;-73
2022/09/27 00:39:51;;;;;;;;;;;;;;;19.13;84.04;98614.56;317549;31;1004;-73
2022/09/27 00:40:01;;;;;;;;;;;;;;;19.11;84.21;98611.22;317000;31;2181;-72
2022/09/27 00:40:11;;;;;;;;;;;;;;;19.10;84.23;98609.53;317255;31;2594;-72
2022/09/27 00:40:23;;;;;;;;;;;;;;;19.11;84.41;98605.91;315877;31;2951;-72
2022/09/27 00:40:33;;;;;;;;;;;;;;;19.08;84.54;98608.84;314249;31;1799;-72
2022/09/27 00:40:43;;;;;;;;;;;;;;;19.07;84.58;98607.16;310882;31;3258;-72
2022/09/27 00:40:53;;;;;;;;;;;;;;;19.05;84.49;98602.03;309243;31;3489;-72
2022/09/27 00:41:04;;;;;;;;;;;;;;;19.07;84.48;98604.53;308730;32;1214;-73
2022/09/27 00:41:15;;;;;;;;;;;;;;;19.06;84.54;98603.69;307527;31;3816;-73
2022/09/27 00:41:29;;;;;;;;;;;;;;;19.07;84.84;98604.53;308139;31;3326;-73
2022/09/27 00:41:41;;;;;;;;;;;;;;;19.07;84.82;98599.22;307633;32;2480;-73
2022/09/27 00:41:51;;;;;;;;;;;;;;;19.06;84.88;98594.91;305598;32;964;-73
2022/09/27 00:42:01;;;;;;;;;;;;;;;19.06;84.80;98602.88;304976;32;2440;-73
2022/09/27 00:42:14;;;;;;;;;;;;;;;19.03;84.95;98603.16;304880;31;2963;-73
2022/09/27 00:42:24;;;;;;;;;;;;;;;19.03;84.78;98597.84;303343;32;3734;-73
2022/09/27 00:42:35;;;;;;;;;;;;;;;19.00;85.04;98604.28;301339;32;1229;-73
2022/09/27 00:42:45;;;;;;;;;;;;;;;18.98;85.11;98598.28;298658;33;4072;-73
2022/09/27 00:42:55;;;;;;;;;;;;;;;18.99;85.21;98596.47;300042;32;4586;-73
2022/09/27 00:43:16;;;;;;;;;;;;;;;18.99;85.21;98596.47;302363;32;830;-73
2022/09/27 00:43:33;;;;;;;;;;;;;;;19.00;85.39;98598.13;300333;32;4460;-73
2022/09/27 00:43:44;;;;;;;;;;;;;;;19.00;85.46;98601.63;302983;32;4477;-73
2022/09/27 00:43:58;;;;;;;;;;;;;;;19.01;85.16;98600.66;301828;32;3521;-73
2022/09/27 00:44:23;;;;;;;;;;;;;;;19.00;85.39;98595.47;302050;32;3561;-73
2022/09/27 00:44:37;;;;;;;;;;;;;;;19.02;85.44;98601.47;302441;32;865;-73
2022/09/27 00:45:09;;;;;;;;;;;;;;;19.02;85.43;98597.00;299253;33;1265;-73
2022/09/27 00:45:19;;;;;;;;;;;;;;;19.05;85.41;98595.91;290319;33;1440;-72
2022/09/27 00:45:29;;;;;;;;;;;;;;;19.06;85.23;98594.91;292439;33;6412;-72
2022/09/27 00:45:39;;;;;;;;;;;;;;;19.06;85.44;98595.72;289564;33;6481;-73
2022/09/27 00:45:54;;;;;;;;;;;;;;;19.07;85.23;98594.75;290505;34;1349;-73
2022/09/27 00:46:04;;;;;;;;;;;;;;;19.07;85.19;98599.22;288556;34;1038;-73
2022/09/27 00:46:18;;;;;;;;;;;;;;;19.08;85.01;98595.59;288319;34;4694;-73
2022/09/27 00:46:28;;;;;;;;;;;;;;;19.09;85.03;98597.25;286597;34;5229;-73
2022/09/27 00:46:39;;;;;;;;;;;;;;;19.08;85.19;98596.41;287916;33;5969;-73
2022/09/27 00:47:10;;;;;;;;;;;;;;;19.09;85.04;98594.59;290657;34;1402;-73
2022/09/27 00:47:20;;;;;;;;;;;;;;;19.11;84.98;98597.94;284899;34;1331;-72
2022/09/27 00:47:34;;;;;;;;;;;;;;;19.09;85.11;98587.50;284353;34;8956;-72
2022/09/27 00:47:52;;;;;;;;;;;;;;;19.08;85.10;98592.94;282420;34;9239;-72
2022/09/27 00:48:03;;;;;;;;;;;;;;;19.07;85.16;98591.25;280148;35;1483;-72
2022/09/27 00:48:14;;;;;;;;;;;;;;;19.07;85.27;98596.56;279053;35;8600;-72
2022/09/27 00:48:26;;;;;;;;;;;;;;;19.06;85.13;98587.75;277284;35;6787;-72
2022/09/27 00:48:36;;;;;;;;;;;;;;;19.07;85.42;98596.56;277770;35;1630;-72
2022/09/27 00:48:47;;;;;;;;;;;;;;;19.08;85.51;98585.81;276349;35;7235;-72
2022/09/27 00:51:14;;;;;;;;;;;;;;;19.11;85.32;98582.03;2492235;27;19933;-73
2022/09/27 00:51:24;;;;;;;;;;;;;;;19.11;85.35;98580.22;355517;27;873;-73
2022/09/27 00:51:34;;;;;;;;;;;;;;;19.12;85.63;98586.38;353324;28;1174;-73
2022/09/27 00:51:45;;;;;;;;;;;;;;;19.13;85.62;98582.75;351901;28;847;-73
2022/09/27 00:51:58;;;;;;;;;;;;;;;19.14;85.72;98581.75;350282;28;1455;-73
2022/09/27 00:52:10;;;;;;;;;;;;;;;19.13;85.38;98580.09;350499;28;1581;-73
2022/09/27 00:52:25;;;;;;;;;;;;;;;19.14;85.51;98581.75;351636;28;3551;-73
2022/09/27 00:52:35;;;;;;;;;;;;;;;19.14;85.43;98589.72;350940;28;5114;-74
2022/09/27 00:53:09;;;;;;;;;;;;;;;19.15;85.19;98580.78;351845;28;1343;-73
2022/09/27 00:53:20;;;;;;;;;;;;;;;19.14;85.46;98573.81;346184;28;1361;-73
2022/09/27 00:53:31;;;;;;;;;;;;;;;19.15;85.46;98580.78;346941;28;1101;-73
2022/09/27 00:53:45;;;;;;;;;;;;;;;19.14;85.26;98579.09;349067;28;1659;-73
2022/09/27 00:53:55;;;;;;;;;;;;;;;19.15;85.49;98575.47;346622;28;1227;-73
2022/09/27 00:54:06;;;;;;;;;;;;;;;19.15;85.30;98580.78;347794;28;1000;-73
2022/09/27 00:54:16;;;;;;;;;;;;;;;19.13;85.34;98580.91;346175;28;1596;-73
2022/09/27 00:54:26;;;;;;;;;;;;;;;19.13;85.47;98575.63;346306;28;1441;-73
2022/09/27 00:54:37;;;;;;;;;;;;;;;19.14;85.21;98576.44;346892;28;1311;-73
2022/09/27 00:54:49;;;;;;;;;;;;;;;19.13;85.45;98572.13;350581;28;1078;-73
2022/09/27 00:55:01;;;;;;;;;;;;;;;19.14;85.50;98581.75;344909;28;1343;-72
2022/09/27 00:55:14;;;;;;;;;;;;;;;19.14;85.46;98573.81;350216;28;876;-72
2022/09/27 00:55:28;;;;;;;;;;;;;;;19.14;85.69;98573.81;348939;28;1654;-73
2022/09/27 00:55:40;;;;;;;;;;;;;;;19.14;85.55;98574.63;346912;28;979;-73
2022/09/27 00:55:54;;;;;;;;;;;;;;;19.13;85.83;98577.44;346348;28;939;-73
2022/09/27 00:56:06;;;;;;;;;;;;;;;19.13;85.70;98580.09;345015;28;1317;-73
2022/09/27 00:56:17;;;;;;;;;;;;;;;19.13;85.71;98577.44;346676;28;1954;-73
2022/09/27 00:56:28;;;;;;;;;;;;;;;19.14;85.63;98573.81;346543;28;825;-73
2022/09/27 00:56:38;;;;;;;;;;;;;;;19.13;85.37;98569.47;345692;28;869;-72
2022/09/27 00:56:48;;;;;;;;;;;;;;;19.11;85.71;98574.09;347364;28;1354;-72
2022/09/27 00:56:59;;;;;;;;;;;;;;;19.09;85.73;98574.22;347717;28;1318;-72
2022/09/27 00:57:09;;;;;;;;;;;;;;;19.07;85.81;98573.53;345902;28;1814;-73
2022/09/27 00:57:19;;;;;;;;;;;;;;;19.07;86.14;98570.03;345114;28;1623;-73
2022/09/27 00:57:30;;;;;;;;;;;;;;;19.07;85.93;98578.84;345148;28;797;-73
2022/09/27 00:57:40;;;;;;;;;;;;;;;19.07;85.82;98572.69;349205;28;1113;-73
2022/09/27 00:57:50;;;;;;;;;;;;;;;19.08;85.68;98579.66;348991;28;1290;-73
2022/09/27 00:58:01;;;;;;;;;;;;;;;19.07;85.89;98578.00;350570;28;856;-73
2022/09/27 00:58:11;;;;;;;;;;;;;;;19.07;86.00;98573.53;350476;28;842;-73
2022/09/27 00:58:23;;;;;;;;;;;;;;;19.06;85.70;98577.16;346589;28;1206;-73
2022/09/27 00:58:35;;;;;;;;;;;;;;;19.07;85.79;98585.94;347732;28;935;-73
2022/09/27 00:58:47;;;;;;;;;;;;;;;19.09;85.93;98581.34;347455;28;1748;-73
2022/09/27 00:59:08;;;;;;;;;;;;;;;19.09;85.71;98581.34;346204;28;1340;-73
2022/09/27 00:59:38;;;;;;;;;;;;;;;19.10;86.09;98580.38;343407;28;1058;-73
2022/09/27 00:59:49;;;;;;;;;;;;;;;19.12;86.10;98591.66;340610;28;1441;-73
2022/09/27 01:00:05;;;;;;;;;;;;;;;19.13;85.90;98588.03;339703;29;1232;-73
2022/09/27 01:00:15;;;;;;;;;;;;;;;19.12;86.40;98587.22;339762;29;791;-73
2022/09/27 01:00:25;;;;;;;;;;;;;;;19.12;86.26;98586.38;339577;29;1935;-73
2022/09/27 01:00:36;;;;;;;;;;;;;;;19.11;86.40;98580.22;338402;29;805;-73
2022/09/27 01:00:47;;;;;;;;;;;;;;;19.12;86.31;98591.66;337174;29;767;-73
2022/09/27 01:00:58;;;;;;;;;;;;;;;19.13;86.53;98590.69;338207;29;1500;-73
2022/09/27 01:01:15;;;;;;;;;;;;;;;19.13;86.46;98594.19;337465;29;1552;-73
2022/09/27 01:01:25;;;;;;;;;;;;;;;19.15;86.33;98586.94;335186;29;1621;-73
2022/09/27 01:01:35;;;;;;;;;;;;;;;19.14;86.47;98589.72;332390;29;4335;-73
2022/09/27 01:01:45;;;;;;;;;;;;;;;19.14;86.51;98589.72;331466;29;3038;-73
2022/09/27 01:01:56;;;;;;;;;;;;;;;19.13;86.26;98585.38;332442;29;3030;-73
2022/09/27 01:02:06;;;;;;;;;;;;;;;19.13;86.34;98583.56;331196;29;2188;-73
2022/09/27 01:02:16;;;;;;;;;;;;;;;19.13;86.42;98585.38;325655;30;5300;-73
2022/09/27 01:02:26;;;;;;;;;;;;;;;19.12;86.55;98581.06;328942;29;1618;-73
2022/09/27 01:02:37;;;;;;;;;;;;;;;19.12;86.31;98586.38;329542;30;1068;-73
2022/09/27 01:02:51;;;;;;;;;;;;;;;19.10;86.48;98578.56;331984;29;1206;-73
2022/09/27 01:03:01;;;;;;;;;;;;;;;19.10;86.38;98583.03;329674;30;955;-74
2022/09/27 01:03:13;;;;;;;;;;;;;;;19.08;86.43;98579.66;328221;29;1848;-74
2022/09/27 01:03:41;;;;;;;;;;;;;;;19.08;86.58;98580.50;327041;30;2249;-74
2022/09/27 01:03:56;;;;;;;;;;;;;;;19.09;86.18;98586.66;326786;29;2304;-73
2022/09/27 01:04:07;;;;;;;;;;;;;;;19.09;86.67;98582.19;330035;29;2832;-73
2022/09/27 01:04:21;;;;;;;;;;;;;;;19.10;86.76;98586.50;329510;30;819;-73
2022/09/27 01:04:31;;;;;;;;;;;;;;;19.09;86.66;98573.38;329582;30;895;-73
2022/09/27 01:04:41;;;;;;;;;;;;;;;19.08;86.84;98569.91;328267;30;1808;-73
2022/09/27 01:04:52;;;;;;;;;;;;;;;19.08;86.86;98575.19;326623;30;1361;-74
2022/09/27 01:05:03;;;;;;;;;;;;;;;19.09;86.47;98573.38;328261;30;947;-74
2022/09/27 01:05:14;;;;;;;;;;;;;;;19.07;86.66;98575.34;328270;30;1320;-74
2022/09/27 01:05:24;;;;;;;;;;;;;;;19.08;86.67;98577.03;325011;30;2565;-74
2022/09/27 01:05:35;;;;;;;;;;;;;;;19.06;86.90;98574.50;323601;30;2993;-74
2022/09/27 01:05:45;;;;;;;;;;;;;;;19.07;86.96;98572.69;325886;30;972;-74
2022/09/27 01:05:55;;;;;;;;;;;;;;;19.06;87.04;98579.00;322533;30;3082;-74